Time;durP1;ratioP1;P1;durP2;ratioP2;P2;SDS_P1;SDS_P2;PMS_P1;PMS_P2;Temp;Humidity;BMP_temperature;BMP_pressure;BME280_temperature;BME280_humidity;BME280_pressure;Samples;Min_cycle;Max_cycle;Signal;HPM_P1;HPM_P2
2022/04/02 00:01:16;;;;;;;13.50;8.50;;;1.00;99.90;;;;;;5135418;28;20258;-70
2022/04/02 00:03:43;;;;;;;11.57;9.93;;;1.00;99.90;;;;;;5134834;28;20197;-69
2022/04/02 00:06:09;;;;;;;11.43;7.40;;;1.00;99.90;;;;;;5116411;28;20577;-70
2022/04/02 00:08:36;;;;;;;8.23;7.43;;;1.00;99.90;;;;;;5133731;28;20228;-69
2022/04/02 00:11:03;;;;;;;9.30;8.40;;;1.00;99.90;;;;;;5135386;28;20212;-71
2022/04/02 00:13:31;;;;;;;10.75;9.25;;;1.00;99.90;;;;;;5134927;28;20206;-72
2022/04/02 00:15:59;;;;;;;13.45;9.00;;;1.00;99.90;;;;;;5116142;28;20206;-71
2022/04/02 00:18:26;;;;;;;11.25;10.15;;;1.00;99.90;;;;;;5100966;28;20675;-72
2022/04/02 00:20:52;;;;;;;11.23;10.07;;;1.00;99.90;;;;;;5135418;28;20221;-72
2022/04/02 00:26:05;;;;;;;11.10;10.00;;;1.00;99.90;;;;;;5124251;27;20190;-72
2022/04/02 00:28:32;;;;;;;14.32;10.25;;;0.90;99.90;;;;;;5120849;27;20197;-72
2022/04/02 00:30:58;;;;;;;12.23;10.85;;;0.90;99.90;;;;;;5138577;27;20198;-72
2022/04/02 00:33:37;;;;;;;10.55;9.43;;;0.90;99.90;;;;;;5138992;27;20214;-72
2022/04/02 00:36:04;;;;;;;12.25;9.57;;;0.90;99.90;;;;;;5120015;27;20201;-72
2022/04/02 00:38:31;;;;;;;12.90;11.43;;;0.80;99.90;;;;;;5119061;27;20205;-72
2022/04/02 00:40:57;;;;;;;11.93;9.80;;;0.80;99.90;;;;;;5137920;27;20565;-72
2022/04/02 00:43:31;;;;;;;13.10;9.70;;;0.90;99.90;;;;;;5138136;27;20197;-72
2022/04/02 00:46:08;;;;;;;15.98;10.00;;;0.90;99.90;;;;;;5138152;27;20229;-73
2022/04/02 00:48:36;;;;;;;11.95;10.02;;;0.80;99.90;;;;;;5138592;27;20599;-72
2022/04/02 00:51:06;;;;;;;9.75;8.85;;;0.80;99.90;;;;;;5119348;27;20225;-72
2022/04/02 00:53:40;;;;;;;10.00;9.00;;;0.80;99.90;;;;;;5138588;27;20198;-72
2022/04/02 00:56:07;;;;;;;12.77;11.05;;;0.80;99.90;;;;;;5137872;27;20201;-72
2022/04/02 00:58:33;;;;;;;11.10;9.95;;;0.80;99.90;;;;;;5138575;27;20214;-72
2022/04/02 01:01:00;;;;;;;13.05;10.73;;;0.80;99.90;;;;;;5119382;27;20210;-73
2022/04/02 01:03:27;;;;;;;13.55;11.55;;;0.80;99.90;;;;;;5138769;27;20267;-74
2022/04/02 01:05:54;;;;;;;9.45;8.55;;;0.70;99.90;;;;;;5120222;27;20214;-74
2022/04/02 01:08:20;;;;;;;11.68;10.48;;;0.70;99.90;;;;;;5137358;27;20221;-74
2022/04/02 01:10:46;;;;;;;13.93;11.63;;;0.80;99.90;;;;;;5136684;27;20205;-73
2022/04/02 01:13:15;;;;;;;14.18;12.00;;;0.70;99.90;;;;;;5138011;27;20577;-74
2022/04/02 01:15:42;;;;;;;12.57;9.40;;;0.70;99.90;;;;;;5137185;27;20198;-74
2022/04/02 01:18:09;;;;;;;13.88;12.45;;;0.70;99.90;;;;;;5118462;27;20263;-74
2022/04/02 01:20:35;;;;;;;13.70;11.90;;;0.70;99.90;;;;;;5137364;27;20688;-74
2022/04/02 01:23:02;;;;;;;13.10;11.70;;;0.70;99.90;;;;;;5119826;27;20198;-73
2022/04/02 01:25:32;;;;;;;11.55;10.40;;;0.70;99.90;;;;;;5137779;27;20252;-74
2022/04/02 01:28:02;;;;;;;10.90;9.82;;;0.70;99.90;;;;;;5137800;27;20198;-74
2022/04/02 01:30:30;;;;;;;12.52;11.23;;;0.70;99.90;;;;;;5137925;27;20216;-73
2022/04/02 01:32:57;;;;;;;12.85;11.55;;;0.80;99.90;;;;;;5119264;27;20572;-74
2022/04/02 01:35:25;;;;;;;12.25;10.95;;;0.70;99.90;;;;;;5136176;27;20684;-76
2022/04/02 01:37:52;;;;;;;12.20;11.07;;;0.70;99.90;;;;;;5136699;27;20262;-74
2022/04/02 01:40:19;;;;;;;14.23;11.35;;;0.70;99.90;;;;;;5136706;27;20214;-74
2022/04/02 01:42:46;;;;;;;11.20;9.90;;;0.80;99.90;;;;;;5118518;27;20205;-74
2022/04/02 01:45:14;;;;;;;20.08;11.25;;;0.80;99.90;;;;;;5137351;27;20201;-74
2022/04/02 01:47:41;;;;;;;10.88;9.23;;;0.70;99.90;;;;;;5136359;27;20198;-73
2022/04/02 01:50:08;;;;;;;10.13;9.13;;;0.80;99.90;;;;;;5136736;27;20258;-76
2022/04/02 01:52:34;;;;;;;14.18;12.30;;;0.80;99.90;;;;;;5137440;27;20201;-74
2022/04/02 01:55:01;;;;;;;11.48;10.32;;;0.80;99.90;;;;;;5101596;27;20202;-73
2022/04/02 01:57:27;;;;;;;12.55;11.10;;;0.70;99.90;;;;;;5118480;27;20205;-74
2022/04/02 01:59:53;;;;;;;12.85;10.85;;;0.80;99.90;;;;;;5135892;27;20228;-73
2022/04/02 02:02:20;;;;;;;12.40;11.10;;;0.80;99.90;;;;;;5118498;27;20209;-74
2022/04/02 02:04:48;;;;;;;10.05;7.40;;;0.70;99.90;;;;;;5118897;27;20198;-74
2022/04/02 02:07:14;;;;;;;13.27;11.10;;;0.80;99.90;;;;;;5136228;27;20627;-74
2022/04/02 02:09:41;;;;;;;11.23;9.35;;;0.70;99.90;;;;;;5137386;27;20185;-74
2022/04/02 02:12:08;;;;;;;10.75;9.73;;;0.70;99.90;;;;;;5136614;27;20657;-74
2022/04/02 02:14:34;;;;;;;9.60;8.75;;;0.80;99.90;;;;;;5137263;27;20198;-73
2022/04/02 02:17:01;;;;;;;9.73;8.73;;;0.80;99.90;;;;;;5136713;27;20538;-73
2022/04/02 02:19:27;;;;;;;12.15;9.05;;;0.70;99.90;;;;;;5117572;27;20665;-73
2022/04/02 02:21:53;;;;;;;8.93;8.13;;;0.80;99.90;;;;;;5117611;27;20197;-74
2022/04/02 02:24:20;;;;;;;8.25;7.45;;;0.70;99.90;;;;;;5136178;27;20201;-74
2022/04/02 02:26:46;;;;;;;10.65;9.65;;;0.70;99.90;;;;;;5117009;27;20205;-74
2022/04/02 02:29:13;;;;;;;10.27;9.25;;;0.70;99.90;;;;;;5135725;27;20198;-73
2022/04/02 02:31:39;;;;;;;8.98;8.07;;;0.70;99.90;;;;;;5117043;27;20198;-74
2022/04/02 02:36:52;;;;;;;9.70;8.70;;;0.70;99.90;;;;;;5136451;27;20183;-73
2022/04/02 02:39:18;;;;;;;9.07;8.27;;;0.70;99.90;;;;;;5134775;27;20198;-74
2022/04/02 02:41:45;;;;;;;8.98;8.07;;;0.70;99.90;;;;;;5134744;27;20194;-73
2022/04/02 02:44:11;;;;;;;9.50;8.18;;;0.70;99.90;;;;;;5137316;27;20213;-74
2022/04/02 02:46:38;;;;;;;9.98;8.43;;;0.70;99.90;;;;;;5135866;27;20202;-74
2022/04/02 02:49:04;;;;;;;8.85;8.00;;;0.70;99.90;;;;;;5134669;27;20202;-74
2022/04/02 02:51:34;;;;;;;7.78;7.07;;;0.70;99.90;;;;;;5135569;27;20202;-74
2022/04/02 02:54:00;;;;;;;10.88;9.77;;;0.60;99.90;;;;;;5117293;27;20197;-73
2022/04/02 02:56:26;;;;;;;8.00;7.30;;;0.70;99.90;;;;;;5135197;27;20197;-73
2022/04/02 02:58:53;;;;;;;8.88;7.97;;;0.70;99.90;;;;;;5135225;27;20622;-73
2022/04/02 03:01:19;;;;;;;12.13;8.57;;;0.60;99.90;;;;;;5135113;27;20217;-73
2022/04/02 03:03:48;;;;;;;8.65;7.80;;;0.60;99.90;;;;;;5135006;27;20200;-73
2022/04/02 03:06:14;;;;;;;8.95;8.13;;;0.60;99.90;;;;;;5134733;27;20218;-73
2022/04/02 03:08:41;;;;;;;9.90;8.57;;;0.60;99.90;;;;;;5099557;27;20226;-73
2022/04/02 03:11:07;;;;;;;8.90;7.13;;;0.70;99.90;;;;;;5134884;27;20198;-73
2022/04/02 03:13:34;;;;;;;10.10;9.05;;;0.60;99.90;;;;;;5134247;27;20198;-73
2022/04/02 03:16:02;;;;;;;8.68;7.25;;;0.60;99.90;;;;;;5134294;27;20202;-74
2022/04/02 03:18:28;;;;;;;8.15;7.35;;;0.70;99.90;;;;;;5116254;27;20246;-73
2022/04/02 03:20:55;;;;;;;8.98;8.18;;;0.60;99.90;;;;;;5134671;27;20217;-74
2022/04/02 03:23:21;;;;;;;9.73;8.07;;;0.70;99.90;;;;;;5135616;27;20198;-73
2022/04/02 03:25:47;;;;;;;7.65;6.95;;;0.70;99.90;;;;;;5135069;27;20530;-73
2022/04/02 03:28:14;;;;;;;8.25;7.45;;;0.60;99.90;;;;;;5134825;28;20201;-73
2022/04/02 03:30:41;;;;;;;10.57;7.72;;;0.60;99.90;;;;;;5134640;28;20198;-77
2022/04/02 03:33:09;;;;;;;9.25;7.80;;;0.60;99.90;;;;;;5134613;28;20252;-75
2022/04/02 03:35:35;;;;;;;8.45;7.35;;;0.60;99.90;;;;;;5134071;28;20617;-73
2022/04/02 03:38:02;;;;;;;8.75;7.78;;;0.60;99.90;;;;;;5134565;28;20542;-74
2022/04/02 03:40:28;;;;;;;9.25;6.65;;;0.60;99.90;;;;;;5134533;28;20221;-73
2022/04/02 03:42:55;;;;;;;7.05;6.45;;;0.60;99.90;;;;;;5135635;28;20202;-73
2022/04/02 03:45:22;;;;;;;9.88;8.23;;;0.60;99.90;;;;;;5135085;28;20556;-74
2022/04/02 03:47:49;;;;;;;7.15;6.45;;;0.50;99.90;;;;;;5133752;28;20198;-73
2022/04/02 03:50:15;;;;;;;7.75;5.88;;;0.50;99.90;;;;;;5133425;28;20259;-74
2022/04/02 03:52:42;;;;;;;7.68;6.88;;;0.50;99.90;;;;;;5134016;28;20209;-73
2022/04/02 03:55:09;;;;;;;10.75;7.05;;;0.50;99.90;;;;;;5133560;28;20202;-74
2022/04/02 03:57:36;;;;;;;9.05;8.18;;;0.50;99.90;;;;;;5133280;27;20201;-74
2022/04/02 04:00:06;;;;;;;5.63;5.13;;;0.60;99.90;;;;;;5138533;27;20213;-73
2022/04/02 04:02:34;;;;;;;7.90;6.53;;;0.50;99.90;;;;;;5138323;27;20193;-73
2022/04/02 04:05:00;;;;;;;7.13;6.43;;;0.50;99.90;;;;;;5119829;27;20556;-73
2022/04/02 04:07:27;;;;;;;12.30;6.50;;;0.50;99.90;;;;;;5137747;27;20757;-73
2022/04/02 04:09:53;;;;;;;8.20;7.50;;;0.50;99.90;;;;;;5138199;27;20255;-73
2022/04/02 04:12:20;;;;;;;7.22;6.55;;;0.40;99.90;;;;;;5137904;27;20637;-74
2022/04/02 04:14:46;;;;;;;7.35;6.72;;;0.50;99.90;;;;;;5138177;27;20202;-74
2022/04/02 04:17:13;;;;;;;9.43;8.20;;;0.50;99.90;;;;;;5138321;27;20277;-74
2022/04/02 04:19:40;;;;;;;9.95;8.43;;;0.40;99.90;;;;;;5137439;27;20549;-74
2022/04/02 04:22:06;;;;;;;8.77;7.88;;;0.50;99.90;;;;;;5119288;27;20202;-74
2022/04/02 04:24:33;;;;;;;6.45;5.85;;;0.40;99.90;;;;;;5137705;27;20241;-74
2022/04/02 04:27:00;;;;;;;8.85;7.50;;;0.40;99.90;;;;;;5137937;27;20194;-73
2022/04/02 04:29:26;;;;;;;9.35;8.48;;;0.40;99.90;;;;;;5138491;27;20271;-73
2022/04/02 04:31:53;;;;;;;8.45;7.20;;;0.40;99.90;;;;;;5137858;27;20221;-73
2022/04/02 04:34:19;;;;;;;8.20;7.47;;;0.40;99.90;;;;;;5138632;27;20198;-74
2022/04/02 04:36:46;;;;;;;7.10;6.40;;;0.40;99.90;;;;;;5137554;27;20209;-73
2022/04/02 04:39:12;;;;;;;8.07;7.28;;;0.40;99.90;;;;;;5138108;27;20202;-73
2022/04/02 04:41:41;;;;;;;10.65;9.55;;;0.40;99.90;;;;;;5138864;27;20222;-73
2022/04/02 04:44:07;;;;;;;10.25;7.80;;;0.40;99.90;;;;;;5137911;27;20198;-73
2022/04/02 04:46:34;;;;;;;8.85;7.32;;;0.30;99.90;;;;;;5138022;27;20684;-73
2022/04/02 04:49:00;;;;;;;8.07;7.38;;;0.30;99.90;;;;;;5120019;27;20241;-73
2022/04/02 04:51:26;;;;;;;9.57;7.63;;;0.30;99.90;;;;;;5137957;27;20201;-74
2022/04/02 04:53:53;;;;;;;9.20;8.30;;;0.30;99.90;;;;;;5137344;27;20198;-73
2022/04/02 04:56:19;;;;;;;9.25;7.80;;;0.30;99.90;;;;;;5103519;27;20204;-73
2022/04/02 04:58:46;;;;;;;13.25;8.90;;;0.30;99.90;;;;;;5138133;27;20201;-74
2022/04/02 05:01:14;;;;;;;7.97;7.38;;;0.20;99.90;;;;;;5119477;27;20229;-73
2022/04/02 05:03:41;;;;;;;9.18;8.25;;;0.20;99.90;;;;;;5119743;27;20190;-73
2022/04/02 05:06:10;;;;;;;9.80;8.65;;;0.20;99.90;;;;;;5137649;27;20271;-74
2022/04/02 05:08:37;;;;;;;10.85;6.70;;;0.30;99.90;;;;;;5116532;28;20237;-74
2022/04/02 05:11:03;;;;;;;9.30;8.38;;;0.30;99.90;;;;;;5116204;28;20214;-73
2022/04/02 05:13:30;;;;;;;10.60;8.32;;;0.30;99.90;;;;;;5117296;28;20206;-74
2022/04/02 05:15:56;;;;;;;9.68;8.57;;;0.20;99.90;;;;;;5115817;28;20203;-73
2022/04/02 05:18:23;;;;;;;9.55;8.50;;;0.20;99.90;;;;;;5116567;27;20206;-73
2022/04/02 05:20:49;;;;;;;10.05;9.00;;;0.20;99.90;;;;;;5116889;28;20639;-73
2022/04/02 05:23:16;;;;;;;11.20;7.05;;;0.20;99.90;;;;;;5116656;28;20194;-73
2022/04/02 05:25:45;;;;;;;10.55;7.70;;;0.20;99.90;;;;;;5117223;27;20199;-73
2022/04/02 05:28:12;;;;;;;14.43;11.98;;;0.20;99.90;;;;;;5116064;28;20763;-74
2022/04/02 05:30:39;;;;;;;17.75;12.15;;;0.20;99.90;;;;;;5117019;28;20254;-74
2022/04/02 05:33:06;;;;;;;10.20;8.40;;;0.20;99.90;;;;;;5116075;28;20221;-73
2022/04/02 05:35:33;;;;;;;13.35;7.68;;;0.20;99.90;;;;;;5116093;27;20258;-74
2022/04/02 05:38:00;;;;;;;11.20;9.18;;;0.20;99.90;;;;;;5115717;28;20198;-73
2022/04/02 05:40:26;;;;;;;9.35;8.40;;;0.20;99.90;;;;;;5117113;28;20226;-73
2022/04/02 05:42:53;;;;;;;8.57;7.72;;;0.20;99.90;;;;;;5116086;28;20677;-74
2022/04/02 05:45:20;;;;;;;10.85;8.70;;;0.20;99.90;;;;;;5116593;28;20202;-73
2022/04/02 05:47:47;;;;;;;10.60;9.60;;;0.20;99.90;;;;;;5117127;28;20195;-73
2022/04/02 05:50:15;;;;;;;8.82;8.02;;;0.20;99.90;;;;;;5116363;28;20209;-73
2022/04/02 05:52:41;;;;;;;9.73;8.82;;;0.30;99.90;;;;;;5116492;28;20201;-73
2022/04/02 05:55:09;;;;;;;9.57;8.68;;;0.20;99.90;;;;;;5115184;28;20233;-73
2022/04/02 05:57:36;;;;;;;13.57;9.50;;;0.20;99.90;;;;;;5117815;28;20209;-73
2022/04/02 06:00:04;;;;;;;9.43;8.27;;;0.30;99.90;;;;;;5116980;28;20194;-73
2022/04/02 06:02:31;;;;;;;11.35;9.02;;;0.20;99.90;;;;;;5114872;28;20194;-73
2022/04/02 06:04:58;;;;;;;11.57;8.75;;;0.30;99.90;;;;;;5114436;28;20482;-73
2022/04/02 06:07:24;;;;;;;9.40;8.52;;;0.30;99.90;;;;;;5119191;27;20222;-73
2022/04/02 06:09:50;;;;;;;12.90;9.10;;;0.30;99.90;;;;;;5136479;27;20238;-73
2022/04/02 06:12:17;;;;;;;7.05;6.45;;;0.30;99.90;;;;;;5136973;27;20535;-73
2022/04/02 06:14:43;;;;;;;8.68;7.32;;;0.30;99.90;;;;;;5117449;27;20653;-73
2022/04/02 06:17:09;;;;;;;8.52;7.68;;;0.30;99.90;;;;;;5135755;27;20205;-73
2022/04/02 06:19:35;;;;;;;11.68;6.93;;;0.40;99.90;;;;;;5136142;27;20530;-73
2022/04/02 06:22:06;;;;;;;8.13;7.32;;;0.30;99.90;;;;;;5137436;27;20221;-73
2022/04/02 06:24:36;;;;;;;8.13;5.32;;;0.40;99.90;;;;;;5118633;27;20564;-73
2022/04/02 06:27:03;;;;;;;8.10;7.30;;;0.30;99.90;;;;;;5118676;27;20198;-73
2022/04/02 06:29:29;;;;;;;12.18;8.27;;;0.40;99.90;;;;;;5136071;27;20194;-73
2022/04/02 06:31:56;;;;;;;27.55;7.85;;;0.40;99.90;;;;;;5116742;27;20205;-73
2022/04/02 06:34:22;;;;;;;12.00;8.57;;;0.40;99.90;;;;;;5135975;27;20197;-73
2022/04/02 06:36:49;;;;;;;8.38;7.47;;;0.40;99.90;;;;;;5117899;27;20667;-73
2022/04/02 06:39:15;;;;;;;7.60;6.82;;;0.40;99.90;;;;;;5136253;27;20198;-73
2022/04/02 06:41:42;;;;;;;10.13;7.25;;;0.30;99.90;;;;;;5116680;27;20601;-73
2022/04/02 06:44:08;;;;;;;8.80;7.47;;;0.30;99.90;;;;;;5117417;27;20194;-73
2022/04/02 06:46:35;;;;;;;11.65;8.48;;;0.30;99.90;;;;;;5135685;27;20198;-73
2022/04/02 06:49:02;;;;;;;11.70;8.80;;;0.20;99.90;;;;;;5135155;27;20198;-73
2022/04/02 06:51:28;;;;;;;12.88;9.77;;;0.20;99.90;;;;;;5136270;27;20198;-73
2022/04/02 06:53:55;;;;;;;10.35;9.23;;;0.10;99.90;;;;;;5135935;27;20201;-72
2022/04/02 06:56:21;;;;;;;13.32;8.57;;;0.10;99.90;;;;;;5135325;27;20209;-73
2022/04/02 06:58:48;;;;;;;10.45;9.45;;;0.10;99.90;;;;;;5101077;27;20708;-73
2022/04/02 07:01:15;;;;;;;16.73;11.27;;;0.10;99.90;;;;;;5135915;27;20247;-72
2022/04/02 07:03:41;;;;;;;11.65;10.45;;;0.10;99.90;;;;;;5117537;27;20202;-73
2022/04/02 07:06:08;;;;;;;23.33;11.20;;;0.10;99.90;;;;;;5135292;27;20225;-73
2022/04/02 07:08:37;;;;;;;13.75;9.65;;;0.10;99.90;;;;;;5134351;27;20236;-73
2022/04/02 07:11:05;;;;;;;13.68;11.40;;;0.10;99.90;;;;;;5117445;27;20217;-73
2022/04/02 07:13:33;;;;;;;15.23;9.10;;;0.10;99.90;;;;;;5117528;27;20662;-73
2022/04/02 07:16:02;;;;;;;13.05;9.82;;;0.20;99.90;;;;;;5117288;27;20267;-74
2022/04/02 07:18:30;;;;;;;15.38;10.20;;;0.20;99.90;;;;;;5116925;27;20680;-73
2022/04/02 07:21:02;;;;;;;13.55;12.18;;;0.30;99.90;;;;;;5118333;27;20805;-74
2022/04/02 07:23:33;;;;;;;13.25;9.48;;;0.30;99.90;;;;;;5117623;27;20247;-72
2022/04/02 07:26:01;;;;;;;11.00;7.93;;;0.30;99.90;;;;;;5135602;27;20761;-73
2022/04/02 07:28:29;;;;;;;12.27;8.55;;;0.30;99.90;;;;;;5117787;28;20713;-69
2022/04/02 07:30:58;;;;;;;12.77;9.63;;;0.30;99.90;;;;;;5135603;28;20780;-71
2022/04/02 07:33:24;;;;;;;12.73;9.75;;;0.30;99.90;;;;;;5118492;28;20297;-71
2022/04/02 07:36:08;;;;;;;21.98;9.52;;;0.30;99.90;;;;;;5137296;28;20599;-70
2022/04/02 07:38:40;;;;;;;13.48;8.05;;;0.40;99.90;;;;;;5117676;28;20267;-70
2022/04/02 07:41:50;;;;;;;8.10;7.28;;;0.30;99.90;;;;;;5135451;28;20218;-71
2022/04/02 07:44:52;;;;;;;15.43;10.98;;;0.40;99.90;;;;;;5032189;28;20212;-70
2022/04/02 07:47:28;;;;;;;10.65;9.02;;;0.30;99.90;;;;;;5116969;28;20644;-70
2022/04/02 07:50:00;;;;;;;14.55;10.77;;;0.40;99.90;;;;;;5135912;28;20268;-71
2022/04/02 07:52:27;;;;;;;15.30;9.82;;;0.40;99.90;;;;;;5134783;28;20190;-70
2022/04/02 07:54:57;;;;;;;9.98;8.98;;;0.40;99.90;;;;;;5136087;28;20338;-70
2022/04/02 07:57:44;;;;;;;15.70;10.10;;;0.40;99.90;;;;;;5134000;28;20257;-70
2022/04/02 08:00:13;;;;;;;9.45;8.50;;;0.40;99.90;;;;;;5135567;28;20189;-70
2022/04/02 08:02:44;;;;;;;11.45;9.07;;;0.40;99.90;;;;;;5135916;28;20233;-71
2022/04/02 08:05:13;;;;;;;14.88;9.95;;;0.40;99.90;;;;;;5134739;27;20206;-71
2022/04/02 08:07:49;;;;;;;16.15;12.75;;;0.50;99.90;;;;;;5116198;28;20222;-70
2022/04/02 08:10:20;;;;;;;15.32;13.70;;;0.50;99.90;;;;;;5135335;28;20666;-70
2022/04/02 08:12:47;;;;;;;18.02;11.43;;;0.60;99.90;;;;;;5134626;28;20198;-71
2022/04/02 08:15:19;;;;;;;14.93;13.00;;;0.60;99.90;;;;;;5135621;28;20198;-71
2022/04/02 08:17:52;;;;;;;13.45;10.65;;;0.50;99.90;;;;;;5135536;28;20185;-70
2022/04/02 08:20:23;;;;;;;17.10;11.93;;;0.60;99.90;;;;;;5136783;28;20264;-70
2022/04/02 08:22:51;;;;;;;11.40;9.20;;;0.60;99.90;;;;;;5135328;28;20209;-71
2022/04/02 08:25:17;;;;;;;11.02;8.55;;;0.70;99.90;;;;;;5134804;28;20198;-70
2022/04/02 08:28:07;;;;;;;9.88;8.60;;;0.80;99.90;;;;;;5116805;28;20595;-71
2022/04/02 08:31:07;;;;;;;10.23;8.13;;;0.80;99.90;;;;;;5135681;28;20189;-71
2022/04/02 08:33:57;;;;;;;9.55;7.70;;;0.90;99.90;;;;;;5135630;28;20585;-71
2022/04/02 08:36:52;;;;;;;10.75;9.65;;;1.00;99.90;;;;;;5116487;28;20198;-71
2022/04/02 08:39:35;;;;;;;14.35;11.20;;;1.00;99.90;;;;;;5116464;28;20194;-71
2022/04/02 08:42:26;;;;;;;13.85;10.98;;;0.90;99.90;;;;;;5136185;28;20202;-71
2022/04/02 08:45:01;;;;;;;8.60;7.80;;;0.90;99.90;;;;;;5117812;27;20685;-71
2022/04/02 08:48:04;;;;;;;10.55;8.68;;;1.00;99.90;;;;;;5139331;27;20551;-71
2022/04/02 08:50:36;;;;;;;11.75;10.18;;;1.00;99.90;;;;;;5138769;27;20178;-70
2022/04/02 08:53:28;;;;;;;13.95;10.77;;;1.10;99.90;;;;;;5139014;27;20642;-71
2022/04/02 08:56:02;;;;;;;13.40;9.40;;;1.20;99.90;;;;;;5139450;27;20266;-71
2022/04/02 08:58:47;;;;;;;10.90;8.95;;;1.30;99.90;;;;;;5137743;27;20182;-71
2022/04/02 09:01:28;;;;;;;12.07;7.07;;;1.10;99.90;;;;;;5137904;27;20229;-71
2022/04/02 09:04:10;;;;;;;9.82;8.18;;;1.00;99.90;;;;;;5119873;27;20190;-71
2022/04/02 09:07:25;;;;;;;10.63;8.52;;;1.00;99.90;;;;;;5138517;27;20567;-71
2022/04/02 09:10:09;;;;;;;10.20;7.50;;;1.00;99.90;;;;;;5138367;27;20178;-71
2022/04/02 09:13:09;;;;;;;9.70;8.18;;;1.10;99.90;;;;;;5139371;27;20190;-71
2022/04/02 09:15:56;;;;;;;11.35;7.68;;;1.10;99.90;;;;;;5119930;27;20206;-72
2022/04/02 09:18:46;;;;;;;12.18;9.02;;;1.10;99.90;;;;;;5138766;27;20189;-72
2022/04/02 09:21:16;;;;;;;11.20;7.63;;;1.10;99.90;;;;;;5137784;27;20699;-71
2022/04/02 09:24:01;;;;;;;12.77;9.50;;;1.10;99.90;;;;;;5119115;27;20198;-71
2022/04/02 09:26:50;;;;;;;10.25;7.43;;;1.20;99.90;;;;;;5138126;27;20182;-71
2022/04/02 09:29:29;;;;;;;12.38;8.57;;;1.30;99.90;;;;;;5137576;27;20189;-71
2022/04/02 09:32:08;;;;;;;9.70;8.75;;;1.20;99.90;;;;;;5137896;27;20186;-71
2022/04/02 09:35:14;;;;;;;15.43;8.00;;;1.40;99.90;;;;;;5138148;27;20190;-71
2022/04/02 09:38:25;;;;;;;11.10;8.52;;;1.50;99.90;;;;;;5138113;27;20588;-70
2022/04/02 09:40:52;;;;;;;10.55;6.60;;;1.60;99.90;;;;;;5137887;27;20205;-71
2022/04/02 09:43:27;;;;;;;7.55;6.80;;;1.60;99.90;;;;;;5138020;27;20194;-71
2022/04/02 09:46:44;;;;;;;13.18;8.68;;;1.70;99.90;;;;;;5137927;27;20202;-71
2022/04/02 09:49:42;;;;;;;8.88;6.20;;;1.70;99.90;;;;;;5136173;27;20192;-70
2022/04/02 09:52:10;;;;;;;13.27;7.05;;;1.60;99.90;;;;;;5121031;27;20197;-71
2022/04/02 09:54:43;;;;;;;9.77;6.65;;;1.50;99.90;;;;;;5136025;27;20202;-71
2022/04/02 09:57:22;;;;;;;7.30;6.70;;;1.50;99.90;;;;;;5137619;27;20190;-70
2022/04/02 10:00:20;;;;;;;7.75;6.95;;;1.40;99.90;;;;;;5137047;27;20645;-70
2022/04/02 10:03:08;;;;;;;6.13;5.63;;;1.60;99.90;;;;;;5137149;27;20313;-71
2022/04/02 10:05:59;;;;;;;6.65;6.05;;;1.50;99.90;;;;;;5137398;27;20577;-70
2022/04/02 10:08:52;;;;;;;11.07;8.75;;;1.50;99.90;;;;;;5118020;27;20291;-70
2022/04/02 10:11:27;;;;;;;8.15;7.20;;;1.80;99.90;;;;;;5119066;27;20202;-71
2022/04/02 10:13:58;;;;;;;8.32;7.53;;;1.80;99.90;;;;;;5136695;27;20220;-71
2022/04/02 10:16:27;;;;;;;6.28;5.68;;;1.80;99.90;;;;;;5136134;27;20255;-71
2022/04/02 10:18:56;;;;;;;8.18;5.55;;;1.70;99.90;;;;;;5137968;27;20545;-71
2022/04/02 10:21:23;;;;;;;7.65;6.95;;;1.70;99.90;;;;;;5136905;27;20225;-72
2022/04/02 10:24:04;;;;;;;8.77;7.88;;;1.70;99.90;;;;;;5136693;27;20654;-72
2022/04/02 10:26:39;;;;;;;13.48;7.40;;;1.70;99.90;;;;;;5136372;27;20227;-71
2022/04/02 10:29:18;;;;;;;10.93;7.22;;;1.80;99.90;;;;;;5136613;27;20197;-72
2022/04/02 10:32:02;;;;;;;8.52;7.68;;;1.90;99.90;;;;;;5136924;27;20186;-72
2022/04/02 10:34:39;;;;;;;7.78;6.85;;;1.80;99.90;;;;;;5136216;27;20594;-72
2022/04/02 10:37:11;;;;;;;8.00;7.20;;;1.80;99.90;;;;;;5137574;27;20555;-72
2022/04/02 10:39:54;;;;;;;13.13;9.02;;;1.90;99.90;;;;;;5136067;27;20201;-72
2022/04/02 10:42:36;;;;;;;10.32;8.80;;;1.90;99.90;;;;;;5136211;27;20213;-72
2022/04/02 10:45:11;;;;;;;8.57;7.25;;;1.90;99.90;;;;;;5136824;27;20209;-71
2022/04/02 10:47:47;;;;;;;11.38;7.35;;;1.70;99.90;;;;;;5135053;27;20202;-71
2022/04/02 10:50:17;;;;;;;8.55;7.65;;;1.80;99.90;;;;;;5135897;27;20197;-71
2022/04/02 10:52:47;;;;;;;17.30;12.00;;;1.90;99.90;;;;;;5135324;27;20633;-71
2022/04/02 10:55:17;;;;;;;8.85;7.78;;;2.00;99.90;;;;;;5135921;27;20401;-71
2022/04/02 10:57:47;;;;;;;14.02;8.07;;;1.90;99.90;;;;;;5116558;27;20206;-71
2022/04/02 11:00:14;;;;;;;11.38;9.70;;;1.90;99.90;;;;;;5134374;27;20198;-71
2022/04/02 11:02:42;;;;;;;8.20;7.35;;;2.00;99.90;;;;;;5134229;27;20218;-71
2022/04/02 11:05:14;;;;;;;10.40;8.82;;;1.90;99.90;;;;;;5134688;27;20201;-71
2022/04/02 11:07:45;;;;;;;7.70;7.00;;;1.90;99.90;;;;;;5132331;27;20226;-72
2022/04/02 11:10:14;;;;;;;8.95;8.15;;;1.90;99.90;;;;;;5116764;27;20198;-72
2022/04/02 11:12:42;;;;;;;9.60;7.43;;;1.90;99.90;;;;;;5134403;27;20209;-73
2022/04/02 11:15:19;;;;;;;7.60;6.82;;;1.90;99.90;;;;;;5134563;27;20202;-72
2022/04/02 11:17:59;;;;;;;11.00;8.77;;;1.90;99.90;;;;;;5134244;27;20629;-71
2022/04/02 11:20:27;;;;;;;9.20;6.90;;;1.90;99.90;;;;;;5134315;27;20196;-71
2022/04/02 11:22:55;;;;;;;15.73;11.02;;;1.70;99.90;;;;;;5116497;28;20221;-71
2022/04/02 11:25:29;;;;;;;11.00;7.13;;;1.80;99.90;;;;;;5134433;27;20194;-72
2022/04/02 11:28:13;;;;;;;8.00;7.28;;;1.70;99.90;;;;;;5135381;27;20180;-71
2022/04/02 11:30:51;;;;;;;7.93;7.10;;;1.60;99.90;;;;;;5134804;28;20228;-71
2022/04/02 11:33:25;;;;;;;9.85;7.55;;;1.40;99.90;;;;;;5117175;28;20197;-71
2022/04/02 11:36:06;;;;;;;10.35;8.43;;;1.30;99.90;;;;;;5116520;28;20209;-72
2022/04/02 11:38:53;;;;;;;8.65;7.57;;;1.30;99.90;;;;;;5134837;28;20258;-70
2022/04/02 11:41:22;;;;;;;10.48;9.48;;;1.20;99.90;;;;;;5135172;28;20209;-70
2022/04/02 11:43:51;;;;;;;13.38;10.27;;;1.30;99.90;;;;;;5135126;28;20198;-70
2022/04/02 11:46:20;;;;;;;10.68;9.43;;;1.30;99.90;;;;;;5136358;28;20282;-72
2022/04/02 11:48:52;;;;;;;11.68;9.48;;;1.40;99.90;;;;;;5118023;28;20230;-71
2022/04/02 11:51:19;;;;;;;13.20;9.50;;;1.60;99.90;;;;;;5134837;28;20193;-71
2022/04/02 11:53:46;;;;;;;15.65;10.82;;;1.70;99.90;;;;;;5135241;28;20198;-71
2022/04/02 11:56:29;;;;;;;11.75;9.85;;;1.80;99.90;;;;;;5135233;28;20594;-70
2022/04/02 11:58:58;;;;;;;11.32;10.10;;;1.90;99.90;;;;;;5135646;28;20683;-70
2022/04/02 12:01:25;;;;;;;10.80;9.15;;;1.80;99.90;;;;;;5134935;28;20202;-70
2022/04/02 12:04:13;;;;;;;9.90;8.85;;;1.70;99.90;;;;;;5134504;28;20201;-70
2022/04/02 12:06:42;;;;;;;10.10;9.10;;;1.70;99.90;;;;;;5116262;28;20245;-71
2022/04/02 12:09:19;;;;;;;10.35;8.07;;;1.50;99.90;;;;;;5134141;28;20222;-71
2022/04/02 12:11:58;;;;;;;13.25;9.85;;;1.30;99.90;;;;;;5134749;28;20193;-71
2022/04/02 12:14:45;;;;;;;12.02;9.30;;;1.40;99.90;;;;;;5134713;28;20209;-71
2022/04/02 12:17:14;;;;;;;13.38;9.43;;;1.30;99.90;;;;;;5134550;28;20202;-71
2022/04/02 12:19:40;;;;;;;12.38;9.90;;;1.20;99.90;;;;;;5136865;27;20677;-71
2022/04/02 12:22:19;;;;;;;10.27;9.07;;;1.30;99.90;;;;;;5137775;27;20221;-71
2022/04/02 12:24:49;;;;;;;13.30;10.85;;;1.20;99.90;;;;;;5138366;27;20178;-71
2022/04/02 12:27:19;;;;;;;12.77;10.30;;;1.30;99.90;;;;;;5137739;27;20194;-71
2022/04/02 12:29:48;;;;;;;19.85;12.63;;;1.40;99.90;;;;;;5138363;27;20202;-71
2022/04/02 12:32:33;;;;;;;13.02;11.50;;;1.50;99.90;;;;;;5119888;27;20217;-71
2022/04/02 12:35:06;;;;;;;14.38;11.05;;;1.60;99.90;;;;;;5120008;27;20206;-71
2022/04/02 12:37:42;;;;;;;15.23;11.48;;;1.70;99.90;;;;;;5119848;27;20202;-70
2022/04/02 12:40:20;;;;;;;13.60;11.50;;;1.70;99.90;;;;;;5121129;27;20197;-73
2022/04/02 12:42:51;;;;;;;15.63;12.40;;;1.70;99.90;;;;;;5140143;27;20214;-71
2022/04/02 12:45:20;;;;;;;17.98;11.43;;;1.80;99.90;;;;;;5137754;27;20701;-71
2022/04/02 12:47:57;;;;;;;14.25;11.07;;;1.90;99.90;;;;;;5138331;27;20202;-70
2022/04/02 12:50:25;;;;;;;13.55;12.15;;;2.00;99.90;;;;;;5138209;27;20286;-70
2022/04/02 12:52:52;;;;;;;14.35;10.45;;;1.90;99.90;;;;;;5138176;27;20643;-72
2022/04/02 12:55:26;;;;;;;12.68;10.65;;;1.80;99.90;;;;;;5137896;27;20202;-73
2022/04/02 12:58:05;;;;;;;10.55;9.43;;;2.00;99.90;;;;;;5137996;27;20177;-71
2022/04/02 13:00:42;;;;;;;12.50;10.38;;;2.10;99.90;;;;;;5137622;27;20186;-70
2022/04/02 13:03:54;;;;;;;14.13;9.85;;;2.30;99.90;;;;;;5137165;27;20557;-73
2022/04/02 13:06:50;;;;;;;13.98;9.85;;;2.40;99.90;;;;;;5084425;27;20224;-70
2022/04/02 13:09:35;;;;;;;11.65;9.32;;;2.40;99.90;;;;;;5115175;28;20259;-72
2022/04/02 13:12:05;;;;;;;12.82;9.77;;;2.40;99.90;;;;;;5115610;28;20202;-72
2022/04/02 13:14:45;;;;;;;9.82;8.68;;;2.40;99.90;;;;;;5116842;28;20202;-71
2022/04/02 13:17:17;;;;;;;11.82;9.18;;;2.40;99.90;;;;;;5115460;28;20202;-70